sensor_id;sensor_type;location;lat;lon;timestamp;P1;durP1;ratioP1;P2;durP2;ratioP2
22184;SDS011;11258;52.516;13.318;2024-03-08T00:01:55;21.73;;;11.83;;
22184;SDS011;11258;52.516;13.318;2024-03-08T00:04:21;26.73;;;11.73;;
22184;SDS011;11258;52.516;13.318;2024-03-08T00:06:47;19.20;;;11.00;;
22184;SDS011;11258;52.516;13.318;2024-03-08T00:09:13;21.83;;;11.73;;
22184;SDS011;11258;52.516;13.318;2024-03-08T00:11:39;21.87;;;11.40;;
22184;SDS011;11258;52.516;13.318;2024-03-08T00:14:05;23.47;;;11.20;;
22184;SDS011;11258;52.516;13.318;2024-03-08T00:16:32;30.20;;;11.27;;
22184;SDS011;11258;52.516;13.318;2024-03-08T00:19:00;22.03;;;11.30;;
22184;SDS011;11258;52.516;13.318;2024-03-08T00:21:26;23.30;;;11.47;;
22184;SDS011;11258;52.516;13.318;2024-03-08T00:23:52;25.93;;;12.07;;
22184;SDS011;11258;52.516;13.318;2024-03-08T00:26:21;20.13;;;10.93;;
22184;SDS011;11258;52.516;13.318;2024-03-08T00:28:48;23.57;;;11.23;;
22184;SDS011;11258;52.516;13.318;2024-03-08T00:31:14;24.13;;;11.93;;
22184;SDS011;11258;52.516;13.318;2024-03-08T00:33:43;25.53;;;12.60;;
22184;SDS011;11258;52.516;13.318;2024-03-08T00:36:09;23.10;;;12.23;;
22184;SDS011;11258;52.516;13.318;2024-03-08T00:38:35;24.57;;;11.40;;
22184;SDS011;11258;52.516;13.318;2024-03-08T00:41:01;26.10;;;11.97;;
22184;SDS011;11258;52.516;13.318;2024-03-08T00:43:27;27.83;;;11.97;;
22184;SDS011;11258;52.516;13.318;2024-03-08T00:45:55;21.73;;;11.10;;
22184;SDS011;11258;52.516;13.318;2024-03-08T00:48:21;23.30;;;11.70;;
22184;SDS011;11258;52.516;13.318;2024-03-08T00:50:47;24.23;;;12.90;;
22184;SDS011;11258;52.516;13.318;2024-03-08T00:53:13;25.40;;;11.60;;
22184;SDS011;11258;52.516;13.318;2024-03-08T00:55:39;24.50;;;12.30;;
22184;SDS011;11258;52.516;13.318;2024-03-08T00:58:05;23.67;;;12.27;;
22184;SDS011;11258;52.516;13.318;2024-03-08T01:00:31;25.30;;;10.70;;
22184;SDS011;11258;52.516;13.318;2024-03-08T01:02:58;24.40;;;11.73;;
22184;SDS011;11258;52.516;13.318;2024-03-08T01:05:25;26.83;;;12.53;;
22184;SDS011;11258;52.516;13.318;2024-03-08T01:07:51;23.53;;;12.50;;
22184;SDS011;11258;52.516;13.318;2024-03-08T01:10:17;25.70;;;11.33;;
22184;SDS011;11258;52.516;13.318;2024-03-08T01:12:43;24.37;;;11.87;;
22184;SDS011;11258;52.516;13.318;2024-03-08T01:15:10;21.27;;;10.50;;
22184;SDS011;11258;52.516;13.318;2024-03-08T01:17:36;21.93;;;11.43;;
22184;SDS011;11258;52.516;13.318;2024-03-08T01:20:02;19.97;;;11.80;;
22184;SDS011;11258;52.516;13.318;2024-03-08T01:22:29;23.80;;;10.90;;
22184;SDS011;11258;52.516;13.318;2024-03-08T01:24:55;26.40;;;11.97;;
22184;SDS011;11258;52.516;13.318;2024-03-08T01:27:21;30.20;;;13.60;;
22184;SDS011;11258;52.516;13.318;2024-03-08T01:29:47;25.60;;;12.33;;
22184;SDS011;11258;52.516;13.318;2024-03-08T01:32:13;26.80;;;12.53;;
22184;SDS011;11258;52.516;13.318;2024-03-08T01:34:40;23.23;;;11.73;;
22184;SDS011;11258;52.516;13.318;2024-03-08T01:37:06;26.93;;;12.07;;
22184;SDS011;11258;52.516;13.318;2024-03-08T01:39:32;24.77;;;11.60;;
22184;SDS011;11258;52.516;13.318;2024-03-08T01:41:58;24.20;;;11.87;;
22184;SDS011;11258;52.516;13.318;2024-03-08T01:44:24;23.70;;;12.37;;
22184;SDS011;11258;52.516;13.318;2024-03-08T01:46:50;22.93;;;11.70;;
22184;SDS011;11258;52.516;13.318;2024-03-08T01:49:18;22.67;;;12.23;;
22184;SDS011;11258;52.516;13.318;2024-03-08T01:51:45;26.93;;;12.40;;
22184;SDS011;11258;52.516;13.318;2024-03-08T01:54:11;22.97;;;11.37;;
22184;SDS011;11258;52.516;13.318;2024-03-08T01:56:38;23.97;;;11.70;;
22184;SDS011;11258;52.516;13.318;2024-03-08T01:59:04;20.10;;;11.13;;
22184;SDS011;11258;52.516;13.318;2024-03-08T02:01:32;25.07;;;11.47;;
22184;SDS011;11258;52.516;13.318;2024-03-08T02:03:59;24.23;;;12.57;;
22184;SDS011;11258;52.516;13.318;2024-03-08T02:06:25;25.30;;;10.83;;
22184;SDS011;11258;52.516;13.318;2024-03-08T02:08:51;31.57;;;15.43;;
22184;SDS011;11258;52.516;13.318;2024-03-08T02:11:18;22.67;;;11.60;;
22184;SDS011;11258;52.516;13.318;2024-03-08T02:13:45;24.27;;;12.17;;
22184;SDS011;11258;52.516;13.318;2024-03-08T02:16:11;21.50;;;11.27;;
22184;SDS011;11258;52.516;13.318;2024-03-08T02:18:37;29.40;;;13.00;;
22184;SDS011;11258;52.516;13.318;2024-03-08T02:21:05;25.90;;;11.80;;
22184;SDS011;11258;52.516;13.318;2024-03-08T02:23:33;24.30;;;11.17;;
22184;SDS011;11258;52.516;13.318;2024-03-08T02:25:59;23.70;;;10.63;;
22184;SDS011;11258;52.516;13.318;2024-03-08T02:28:25;26.20;;;12.27;;
22184;SDS011;11258;52.516;13.318;2024-03-08T02:30:51;24.53;;;11.53;;
22184;SDS011;11258;52.516;13.318;2024-03-08T02:33:21;24.73;;;11.60;;
22184;SDS011;11258;52.516;13.318;2024-03-08T02:35:48;24.07;;;12.57;;
22184;SDS011;11258;52.516;13.318;2024-03-08T02:38:15;26.20;;;11.83;;
22184;SDS011;11258;52.516;13.318;2024-03-08T02:40:44;24.43;;;11.93;;
22184;SDS011;11258;52.516;13.318;2024-03-08T02:43:11;25.90;;;13.40;;
22184;SDS011;11258;52.516;13.318;2024-03-08T02:45:37;20.27;;;10.93;;
22184;SDS011;11258;52.516;13.318;2024-03-08T02:48:03;28.77;;;13.37;;
22184;SDS011;11258;52.516;13.318;2024-03-08T02:50:31;25.93;;;13.27;;
22184;SDS011;11258;52.516;13.318;2024-03-08T02:52:57;28.37;;;12.60;;
22184;SDS011;11258;52.516;13.318;2024-03-08T02:55:23;25.30;;;12.03;;
22184;SDS011;11258;52.516;13.318;2024-03-08T02:57:51;29.10;;;13.23;;
22184;SDS011;11258;52.516;13.318;2024-03-08T03:00:17;25.13;;;10.80;;
22184;SDS011;11258;52.516;13.318;2024-03-08T03:02:44;21.37;;;11.07;;
22184;SDS011;11258;52.516;13.318;2024-03-08T03:05:11;22.80;;;11.57;;
22184;SDS011;11258;52.516;13.318;2024-03-08T03:07:37;22.93;;;11.43;;
22184;SDS011;11258;52.516;13.318;2024-03-08T03:10:03;24.30;;;11.63;;
22184;SDS011;11258;52.516;13.318;2024-03-08T03:12:30;26.50;;;12.23;;
22184;SDS011;11258;52.516;13.318;2024-03-08T03:14:56;29.70;;;12.73;;
22184;SDS011;11258;52.516;13.318;2024-03-08T03:17:23;24.50;;;12.83;;
22184;SDS011;11258;52.516;13.318;2024-03-08T03:19:49;21.57;;;11.17;;
22184;SDS011;11258;52.516;13.318;2024-03-08T03:22:16;26.77;;;12.67;;
22184;SDS011;11258;52.516;13.318;2024-03-08T03:24:43;27.03;;;11.83;;
22184;SDS011;11258;52.516;13.318;2024-03-08T03:27:09;24.80;;;11.37;;
22184;SDS011;11258;52.516;13.318;2024-03-08T03:29:39;27.73;;;13.30;;
22184;SDS011;11258;52.516;13.318;2024-03-08T03:32:07;23.63;;;11.93;;
22184;SDS011;11258;52.516;13.318;2024-03-08T03:34:33;23.73;;;11.77;;
22184;SDS011;11258;52.516;13.318;2024-03-08T03:37:03;26.47;;;12.50;;
22184;SDS011;11258;52.516;13.318;2024-03-08T03:39:29;25.50;;;12.40;;
22184;SDS011;11258;52.516;13.318;2024-03-08T03:42:21;28.47;;;12.53;;
22184;SDS011;11258;52.516;13.318;2024-03-08T03:44:48;25.20;;;12.23;;
22184;SDS011;11258;52.516;13.318;2024-03-08T03:47:15;23.37;;;12.30;;
22184;SDS011;11258;52.516;13.318;2024-03-08T03:49:41;27.77;;;13.87;;
22184;SDS011;11258;52.516;13.318;2024-03-08T03:52:07;27.90;;;12.83;;
22184;SDS011;11258;52.516;13.318;2024-03-08T03:54:34;26.17;;;13.20;;
22184;SDS011;11258;52.516;13.318;2024-03-08T03:57:00;26.50;;;11.80;;
22184;SDS011;11258;52.516;13.318;2024-03-08T03:59:29;25.60;;;11.77;;
22184;SDS011;11258;52.516;13.318;2024-03-08T04:01:56;26.60;;;12.90;;
22184;SDS011;11258;52.516;13.318;2024-03-08T04:04:22;25.37;;;13.33;;
22184;SDS011;11258;52.516;13.318;2024-03-08T04:06:49;29.80;;;12.87;;
22184;SDS011;11258;52.516;13.318;2024-03-08T04:09:16;27.27;;;12.27;;
22184;SDS011;11258;52.516;13.318;2024-03-08T04:11:44;28.30;;;12.30;;
22184;SDS011;11258;52.516;13.318;2024-03-08T04:14:10;23.77;;;12.47;;
22184;SDS011;11258;52.516;13.318;2024-03-08T04:16:37;26.70;;;12.13;;
22184;SDS011;11258;52.516;13.318;2024-03-08T04:19:03;26.73;;;12.93;;
22184;SDS011;11258;52.516;13.318;2024-03-08T04:21:32;26.63;;;12.17;;
22184;SDS011;11258;52.516;13.318;2024-03-08T04:23:58;25.57;;;13.13;;
22184;SDS011;11258;52.516;13.318;2024-03-08T04:26:24;28.93;;;14.17;;
22184;SDS011;11258;52.516;13.318;2024-03-08T04:28:51;31.67;;;14.33;;
22184;SDS011;11258;52.516;13.318;2024-03-08T04:31:17;27.77;;;13.13;;
22184;SDS011;11258;52.516;13.318;2024-03-08T04:33:43;25.53;;;12.83;;
22184;SDS011;11258;52.516;13.318;2024-03-08T04:36:09;26.80;;;13.13;;
22184;SDS011;11258;52.516;13.318;2024-03-08T04:38:38;32.10;;;13.77;;
22184;SDS011;11258;52.516;13.318;2024-03-08T04:41:05;27.77;;;12.37;;
22184;SDS011;11258;52.516;13.318;2024-03-08T04:43:32;26.70;;;12.97;;
22184;SDS011;11258;52.516;13.318;2024-03-08T04:45:58;30.60;;;13.67;;
22184;SDS011;11258;52.516;13.318;2024-03-08T04:48:24;27.73;;;12.73;;
22184;SDS011;11258;52.516;13.318;2024-03-08T04:50:53;32.20;;;14.00;;
22184;SDS011;11258;52.516;13.318;2024-03-08T04:53:20;30.53;;;13.33;;
22184;SDS011;11258;52.516;13.318;2024-03-08T04:55:46;28.50;;;13.57;;
22184;SDS011;11258;52.516;13.318;2024-03-08T04:58:13;26.50;;;13.53;;
22184;SDS011;11258;52.516;13.318;2024-03-08T05:00:39;26.60;;;13.87;;
22184;SDS011;11258;52.516;13.318;2024-03-08T05:03:05;26.10;;;12.33;;
22184;SDS011;11258;52.516;13.318;2024-03-08T05:05:31;26.40;;;12.30;;
22184;SDS011;11258;52.516;13.318;2024-03-08T05:07:58;30.97;;;14.43;;
22184;SDS011;11258;52.516;13.318;2024-03-08T05:10:24;28.73;;;12.90;;
22184;SDS011;11258;52.516;13.318;2024-03-08T05:12:50;28.83;;;13.43;;
22184;SDS011;11258;52.516;13.318;2024-03-08T05:15:16;27.53;;;13.43;;
22184;SDS011;11258;52.516;13.318;2024-03-08T05:17:42;26.23;;;13.40;;
22184;SDS011;11258;52.516;13.318;2024-03-08T05:20:09;25.97;;;14.13;;
22184;SDS011;11258;52.516;13.318;2024-03-08T05:22:38;29.13;;;13.50;;
22184;SDS011;11258;52.516;13.318;2024-03-08T05:25:05;28.67;;;13.77;;
22184;SDS011;11258;52.516;13.318;2024-03-08T05:27:33;30.27;;;14.27;;
22184;SDS011;11258;52.516;13.318;2024-03-08T05:29:59;28.83;;;13.13;;
22184;SDS011;11258;52.516;13.318;2024-03-08T05:32:25;24.17;;;12.27;;
22184;SDS011;11258;52.516;13.318;2024-03-08T05:34:51;26.67;;;14.13;;
22184;SDS011;11258;52.516;13.318;2024-03-08T05:37:17;28.87;;;13.50;;
22184;SDS011;11258;52.516;13.318;2024-03-08T05:39:45;33.00;;;15.20;;
22184;SDS011;11258;52.516;13.318;2024-03-08T05:42:11;29.20;;;14.27;;
22184;SDS011;11258;52.516;13.318;2024-03-08T05:44:37;28.33;;;13.07;;
22184;SDS011;11258;52.516;13.318;2024-03-08T05:47:05;31.20;;;14.53;;
22184;SDS011;11258;52.516;13.318;2024-03-08T05:49:32;26.97;;;13.40;;
22184;SDS011;11258;52.516;13.318;2024-03-08T05:51:59;29.03;;;13.77;;
22184;SDS011;11258;52.516;13.318;2024-03-08T05:54:25;28.30;;;13.63;;
22184;SDS011;11258;52.516;13.318;2024-03-08T05:56:52;33.07;;;14.40;;
22184;SDS011;11258;52.516;13.318;2024-03-08T05:59:19;32.47;;;15.60;;
22184;SDS011;11258;52.516;13.318;2024-03-08T06:01:45;33.40;;;15.90;;
22184;SDS011;11258;52.516;13.318;2024-03-08T06:04:12;27.13;;;14.83;;
22184;SDS011;11258;52.516;13.318;2024-03-08T06:06:39;31.23;;;14.43;;
22184;SDS011;11258;52.516;13.318;2024-03-08T06:09:05;32.90;;;15.33;;
22184;SDS011;11258;52.516;13.318;2024-03-08T06:11:36;33.27;;;15.53;;
22184;SDS011;11258;52.516;13.318;2024-03-08T06:14:03;29.43;;;14.67;;
22184;SDS011;11258;52.516;13.318;2024-03-08T06:16:29;32.30;;;13.77;;
22184;SDS011;11258;52.516;13.318;2024-03-08T06:18:55;36.70;;;15.50;;
22184;SDS011;11258;52.516;13.318;2024-03-08T06:21:22;25.43;;;13.53;;
22184;SDS011;11258;52.516;13.318;2024-03-08T06:23:49;25.53;;;13.70;;
22184;SDS011;11258;52.516;13.318;2024-03-08T06:26:16;28.00;;;14.87;;
22184;SDS011;11258;52.516;13.318;2024-03-08T06:28:42;27.77;;;13.47;;
22184;SDS011;11258;52.516;13.318;2024-03-08T06:31:08;27.13;;;13.57;;
22184;SDS011;11258;52.516;13.318;2024-03-08T06:33:35;30.80;;;13.50;;
22184;SDS011;11258;52.516;13.318;2024-03-08T06:36:01;27.37;;;13.07;;
22184;SDS011;11258;52.516;13.318;2024-03-08T06:38:27;24.07;;;13.73;;
22184;SDS011;11258;52.516;13.318;2024-03-08T06:40:53;28.77;;;12.43;;
22184;SDS011;11258;52.516;13.318;2024-03-08T06:43:19;25.07;;;13.53;;
22184;SDS011;11258;52.516;13.318;2024-03-08T06:45:46;25.37;;;13.37;;
22184;SDS011;11258;52.516;13.318;2024-03-08T06:48:15;24.90;;;13.03;;
22184;SDS011;11258;52.516;13.318;2024-03-08T06:50:42;21.40;;;11.83;;
22184;SDS011;11258;52.516;13.318;2024-03-08T06:53:08;21.57;;;12.57;;
22184;SDS011;11258;52.516;13.318;2024-03-08T06:55:34;23.10;;;12.43;;
22184;SDS011;11258;52.516;13.318;2024-03-08T06:58:00;25.30;;;12.93;;
22184;SDS011;11258;52.516;13.318;2024-03-08T07:00:26;31.80;;;13.43;;
22184;SDS011;11258;52.516;13.318;2024-03-08T07:02:54;22.03;;;13.20;;
22184;SDS011;11258;52.516;13.318;2024-03-08T07:05:20;27.77;;;14.50;;
22184;SDS011;11258;52.516;13.318;2024-03-08T07:07:46;23.20;;;12.60;;
22184;SDS011;11258;52.516;13.318;2024-03-08T07:10:14;25.47;;;11.97;;
22184;SDS011;11258;52.516;13.318;2024-03-08T07:12:40;23.10;;;12.05;;
22184;SDS011;11258;52.516;13.318;2024-03-08T07:15:07;25.35;;;13.20;;
22184;SDS011;11258;52.516;13.318;2024-03-08T07:17:38;26.70;;;12.98;;
22184;SDS011;11258;52.516;13.318;2024-03-08T07:20:04;25.70;;;14.00;;
22184;SDS011;11258;52.516;13.318;2024-03-08T07:22:36;23.40;;;13.38;;
22184;SDS011;11258;52.516;13.318;2024-03-08T07:25:03;25.45;;;13.80;;
22184;SDS011;11258;52.516;13.318;2024-03-08T07:27:33;24.17;;;13.57;;
22184;SDS011;11258;52.516;13.318;2024-03-08T07:30:01;23.88;;;13.02;;
22184;SDS011;11258;52.516;13.318;2024-03-08T07:32:27;26.85;;;13.40;;
22184;SDS011;11258;52.516;13.318;2024-03-08T07:34:55;25.13;;;13.13;;
22184;SDS011;11258;52.516;13.318;2024-03-08T07:37:21;21.92;;;12.18;;
22184;SDS011;11258;52.516;13.318;2024-03-08T07:39:48;23.02;;;12.75;;
22184;SDS011;11258;52.516;13.318;2024-03-08T07:42:14;23.00;;;12.87;;
22184;SDS011;11258;52.516;13.318;2024-03-08T07:44:41;19.93;;;11.07;;
22184;SDS011;11258;52.516;13.318;2024-03-08T07:47:08;22.60;;;11.73;;
22184;SDS011;11258;52.516;13.318;2024-03-08T07:49:37;26.47;;;12.27;;
22184;SDS011;11258;52.516;13.318;2024-03-08T07:52:04;21.00;;;11.57;;
22184;SDS011;11258;52.516;13.318;2024-03-08T07:54:32;25.10;;;12.50;;
22184;SDS011;11258;52.516;13.318;2024-03-08T07:57:00;22.50;;;12.07;;
22184;SDS011;11258;52.516;13.318;2024-03-08T07:59:28;22.17;;;12.43;;
22184;SDS011;11258;52.516;13.318;2024-03-08T08:01:55;21.40;;;11.73;;
22184;SDS011;11258;52.516;13.318;2024-03-08T08:04:21;23.80;;;12.67;;
22184;SDS011;11258;52.516;13.318;2024-03-08T08:06:52;22.47;;;12.33;;
22184;SDS011;11258;52.516;13.318;2024-03-08T08:09:20;22.27;;;11.60;;
22184;SDS011;11258;52.516;13.318;2024-03-08T08:11:54;27.53;;;12.77;;
22184;SDS011;11258;52.516;13.318;2024-03-08T08:14:20;25.53;;;13.07;;
22184;SDS011;11258;52.516;13.318;2024-03-08T08:16:46;25.77;;;13.23;;
22184;SDS011;11258;52.516;13.318;2024-03-08T08:19:14;23.63;;;12.52;;
22184;SDS011;11258;52.516;13.318;2024-03-08T08:21:40;20.85;;;12.05;;
22184;SDS011;11258;52.516;13.318;2024-03-08T08:24:06;33.57;;;18.20;;
22184;SDS011;11258;52.516;13.318;2024-03-08T08:26:32;21.30;;;11.50;;
22184;SDS011;11258;52.516;13.318;2024-03-08T08:28:59;26.63;;;12.33;;
22184;SDS011;11258;52.516;13.318;2024-03-08T08:31:25;19.63;;;10.90;;
22184;SDS011;11258;52.516;13.318;2024-03-08T08:33:51;26.07;;;11.47;;
22184;SDS011;11258;52.516;13.318;2024-03-08T08:36:23;18.83;;;10.63;;
22184;SDS011;11258;52.516;13.318;2024-03-08T08:38:49;23.57;;;11.27;;
22184;SDS011;11258;52.516;13.318;2024-03-08T08:41:15;20.90;;;10.87;;
22184;SDS011;11258;52.516;13.318;2024-03-08T08:43:42;22.70;;;10.97;;
22184;SDS011;11258;52.516;13.318;2024-03-08T08:46:09;21.93;;;11.17;;
22184;SDS011;11258;52.516;13.318;2024-03-08T08:48:38;19.87;;;10.70;;
22184;SDS011;11258;52.516;13.318;2024-03-08T08:51:06;23.20;;;11.10;;
22184;SDS011;11258;52.516;13.318;2024-03-08T08:53:31;20.07;;;10.63;;
22184;SDS011;11258;52.516;13.318;2024-03-08T08:56:00;20.13;;;10.83;;
22184;SDS011;11258;52.516;13.318;2024-03-08T08:58:26;25.17;;;11.13;;
22184;SDS011;11258;52.516;13.318;2024-03-08T09:00:52;22.23;;;11.10;;
22184;SDS011;11258;52.516;13.318;2024-03-08T09:03:18;24.17;;;11.60;;
22184;SDS011;11258;52.516;13.318;2024-03-08T09:05:45;21.77;;;11.50;;
22184;SDS011;11258;52.516;13.318;2024-03-08T09:08:11;21.77;;;10.50;;
22184;SDS011;11258;52.516;13.318;2024-03-08T09:10:37;23.93;;;12.00;;
22184;SDS011;11258;52.516;13.318;2024-03-08T09:13:04;22.90;;;11.63;;
22184;SDS011;11258;52.516;13.318;2024-03-08T09:15:31;23.73;;;11.97;;
22184;SDS011;11258;52.516;13.318;2024-03-08T09:17:57;25.23;;;12.13;;
22184;SDS011;11258;52.516;13.318;2024-03-08T09:20:24;26.83;;;12.30;;
22184;SDS011;11258;52.516;13.318;2024-03-08T09:22:50;21.13;;;11.20;;
22184;SDS011;11258;52.516;13.318;2024-03-08T09:25:16;23.47;;;12.97;;
22184;SDS011;11258;52.516;13.318;2024-03-08T09:27:42;18.57;;;10.97;;
22184;SDS011;11258;52.516;13.318;2024-03-08T09:30:08;24.77;;;11.77;;
22184;SDS011;11258;52.516;13.318;2024-03-08T09:32:34;23.50;;;12.03;;
22184;SDS011;11258;52.516;13.318;2024-03-08T09:35:01;26.20;;;13.13;;
22184;SDS011;11258;52.516;13.318;2024-03-08T09:37:28;23.43;;;11.40;;
22184;SDS011;11258;52.516;13.318;2024-03-08T09:39:54;23.63;;;11.77;;
22184;SDS011;11258;52.516;13.318;2024-03-08T09:42:20;28.40;;;13.77;;
22184;SDS011;11258;52.516;13.318;2024-03-08T09:44:46;23.40;;;11.87;;
22184;SDS011;11258;52.516;13.318;2024-03-08T09:47:13;25.67;;;11.80;;
22184;SDS011;11258;52.516;13.318;2024-03-08T09:49:40;24.67;;;11.90;;
22184;SDS011;11258;52.516;13.318;2024-03-08T09:52:06;18.93;;;11.13;;
22184;SDS011;11258;52.516;13.318;2024-03-08T09:54:33;27.33;;;12.40;;
22184;SDS011;11258;52.516;13.318;2024-03-08T09:56:59;23.60;;;12.20;;
22184;SDS011;11258;52.516;13.318;2024-03-08T09:59:25;22.20;;;11.90;;
22184;SDS011;11258;52.516;13.318;2024-03-08T10:01:51;21.50;;;11.30;;
22184;SDS011;11258;52.516;13.318;2024-03-08T10:04:17;22.20;;;11.57;;
22184;SDS011;11258;52.516;13.318;2024-03-08T10:06:45;20.90;;;11.13;;
22184;SDS011;11258;52.516;13.318;2024-03-08T10:09:14;25.67;;;12.30;;
22184;SDS011;11258;52.516;13.318;2024-03-08T10:11:41;21.10;;;10.60;;
22184;SDS011;11258;52.516;13.318;2024-03-08T10:14:08;24.67;;;12.07;;
22184;SDS011;11258;52.516;13.318;2024-03-08T10:16:35;24.90;;;12.50;;
22184;SDS011;11258;52.516;13.318;2024-03-08T10:19:01;25.27;;;11.23;;
22184;SDS011;11258;52.516;13.318;2024-03-08T10:21:30;21.80;;;11.27;;
22184;SDS011;11258;52.516;13.318;2024-03-08T10:23:57;23.40;;;10.93;;
22184;SDS011;11258;52.516;13.318;2024-03-08T10:26:24;23.17;;;9.13;;
22184;SDS011;11258;52.516;13.318;2024-03-08T10:28:51;21.17;;;10.40;;
22184;SDS011;11258;52.516;13.318;2024-03-08T10:31:18;21.33;;;10.10;;
22184;SDS011;11258;52.516;13.318;2024-03-08T10:33:44;21.30;;;10.17;;
22184;SDS011;11258;52.516;13.318;2024-03-08T10:36:11;20.23;;;10.17;;
22184;SDS011;11258;52.516;13.318;2024-03-08T10:38:38;32.57;;;17.07;;
22184;SDS011;11258;52.516;13.318;2024-03-08T10:41:10;22.63;;;12.53;;
22184;SDS011;11258;52.516;13.318;2024-03-08T10:46:33;19.00;;;10.33;;
22184;SDS011;11258;52.516;13.318;2024-03-08T10:49:00;22.80;;;11.87;;
22184;SDS011;11258;52.516;13.318;2024-03-08T10:51:28;24.30;;;11.00;;
22184;SDS011;11258;52.516;13.318;2024-03-08T10:53:55;19.90;;;10.47;;
22184;SDS011;11258;52.516;13.318;2024-03-08T10:56:23;22.33;;;11.10;;
22184;SDS011;11258;52.516;13.318;2024-03-08T10:58:52;21.27;;;10.50;;
22184;SDS011;11258;52.516;13.318;2024-03-08T11:01:18;23.13;;;11.30;;
22184;SDS011;11258;52.516;13.318;2024-03-08T11:03:44;19.20;;;10.97;;
22184;SDS011;11258;52.516;13.318;2024-03-08T11:06:21;21.87;;;10.93;;
22184;SDS011;11258;52.516;13.318;2024-03-08T11:08:48;17.20;;;9.80;;
22184;SDS011;11258;52.516;13.318;2024-03-08T11:11:31;17.97;;;9.97;;
22184;SDS011;11258;52.516;13.318;2024-03-08T11:13:59;20.00;;;9.60;;
22184;SDS011;11258;52.516;13.318;2024-03-08T11:18:59;23.70;;;10.33;;
22184;SDS011;11258;52.516;13.318;2024-03-08T11:21:29;19.07;;;9.50;;
22184;SDS011;11258;52.516;13.318;2024-03-08T11:24:00;18.40;;;10.30;;
22184;SDS011;11258;52.516;13.318;2024-03-08T11:26:26;22.20;;;9.67;;
22184;SDS011;11258;52.516;13.318;2024-03-08T11:28:52;17.47;;;10.53;;
22184;SDS011;11258;52.516;13.318;2024-03-08T11:33:46;17.77;;;9.90;;
22184;SDS011;11258;52.516;13.318;2024-03-08T11:36:23;16.80;;;9.63;;
22184;SDS011;11258;52.516;13.318;2024-03-08T11:38:50;20.20;;;9.63;;
22184;SDS011;11258;52.516;13.318;2024-03-08T11:41:24;19.30;;;9.33;;
22184;SDS011;11258;52.516;13.318;2024-03-08T11:44:01;22.20;;;10.00;;
22184;SDS011;11258;52.516;13.318;2024-03-08T11:46:30;21.07;;;10.57;;
22184;SDS011;11258;52.516;13.318;2024-03-08T11:48:56;17.53;;;8.83;;
22184;SDS011;11258;52.516;13.318;2024-03-08T11:51:22;16.47;;;9.57;;
22184;SDS011;11258;52.516;13.318;2024-03-08T11:53:49;15.70;;;8.67;;
22184;SDS011;11258;52.516;13.318;2024-03-08T11:56:15;18.87;;;8.77;;
22184;SDS011;11258;52.516;13.318;2024-03-08T11:58:41;17.87;;;10.00;;
22184;SDS011;11258;52.516;13.318;2024-03-08T12:01:08;18.60;;;9.33;;
22184;SDS011;11258;52.516;13.318;2024-03-08T12:03:39;17.20;;;8.53;;
22184;SDS011;11258;52.516;13.318;2024-03-08T12:06:07;18.07;;;9.07;;
22184;SDS011;11258;52.516;13.318;2024-03-08T12:08:34;17.30;;;8.60;;
22184;SDS011;11258;52.516;13.318;2024-03-08T12:11:00;17.50;;;8.80;;
22184;SDS011;11258;52.516;13.318;2024-03-08T12:13:27;18.57;;;10.10;;
22184;SDS011;11258;52.516;13.318;2024-03-08T12:15:55;16.43;;;9.03;;
22184;SDS011;11258;52.516;13.318;2024-03-08T12:18:23;18.90;;;8.80;;
22184;SDS011;11258;52.516;13.318;2024-03-08T12:20:49;17.20;;;9.00;;
22184;SDS011;11258;52.516;13.318;2024-03-08T12:23:15;17.80;;;9.80;;
22184;SDS011;11258;52.516;13.318;2024-03-08T12:25:41;20.27;;;10.07;;
22184;SDS011;11258;52.516;13.318;2024-03-08T12:28:11;20.50;;;9.70;;
22184;SDS011;11258;52.516;13.318;2024-03-08T12:30:50;17.70;;;9.47;;
22184;SDS011;11258;52.516;13.318;2024-03-08T12:33:19;21.47;;;9.70;;
22184;SDS011;11258;52.516;13.318;2024-03-08T12:35:51;21.00;;;10.23;;
22184;SDS011;11258;52.516;13.318;2024-03-08T12:38:23;19.77;;;10.00;;
22184;SDS011;11258;52.516;13.318;2024-03-08T12:40:50;18.30;;;9.80;;
22184;SDS011;11258;52.516;13.318;2024-03-08T12:43:16;19.87;;;10.63;;
22184;SDS011;11258;52.516;13.318;2024-03-08T12:45:43;17.73;;;9.70;;
22184;SDS011;11258;52.516;13.318;2024-03-08T12:48:13;19.67;;;9.30;;
22184;SDS011;11258;52.516;13.318;2024-03-08T12:50:40;20.73;;;10.03;;
22184;SDS011;11258;52.516;13.318;2024-03-08T12:53:09;18.23;;;9.67;;
22184;SDS011;11258;52.516;13.318;2024-03-08T12:55:35;20.63;;;10.10;;
22184;SDS011;11258;52.516;13.318;2024-03-08T12:58:01;19.30;;;10.20;;
22184;SDS011;11258;52.516;13.318;2024-03-08T13:00:27;22.67;;;10.00;;
22184;SDS011;11258;52.516;13.318;2024-03-08T13:02:53;22.83;;;10.47;;
22184;SDS011;11258;52.516;13.318;2024-03-08T13:05:20;18.77;;;9.60;;
22184;SDS011;11258;52.516;13.318;2024-03-08T13:07:47;20.43;;;10.20;;
22184;SDS011;11258;52.516;13.318;2024-03-08T13:10:14;17.00;;;9.20;;
22184;SDS011;11258;52.516;13.318;2024-03-08T13:12:41;19.00;;;10.50;;
22184;SDS011;11258;52.516;13.318;2024-03-08T13:15:08;22.40;;;9.70;;
22184;SDS011;11258;52.516;13.318;2024-03-08T13:17:37;19.07;;;9.93;;
22184;SDS011;11258;52.516;13.318;2024-03-08T13:20:05;20.60;;;9.63;;
22184;SDS011;11258;52.516;13.318;2024-03-08T13:22:32;18.83;;;9.53;;
22184;SDS011;11258;52.516;13.318;2024-03-08T13:24:58;17.23;;;9.37;;
22184;SDS011;11258;52.516;13.318;2024-03-08T13:27:26;24.40;;;10.13;;
22184;SDS011;11258;52.516;13.318;2024-03-08T13:29:52;19.43;;;9.17;;
22184;SDS011;11258;52.516;13.318;2024-03-08T13:32:18;20.87;;;9.23;;
22184;SDS011;11258;52.516;13.318;2024-03-08T13:34:49;17.30;;;8.97;;
22184;SDS011;11258;52.516;13.318;2024-03-08T13:37:16;16.97;;;9.37;;
22184;SDS011;11258;52.516;13.318;2024-03-08T13:39:42;16.57;;;9.27;;
22184;SDS011;11258;52.516;13.318;2024-03-08T13:42:11;16.30;;;8.73;;
22184;SDS011;11258;52.516;13.318;2024-03-08T13:44:44;17.30;;;9.73;;
22184;SDS011;11258;52.516;13.318;2024-03-08T13:47:11;21.07;;;9.77;;
22184;SDS011;11258;52.516;13.318;2024-03-08T13:49:37;16.73;;;9.20;;
22184;SDS011;11258;52.516;13.318;2024-03-08T13:52:04;18.33;;;9.73;;
22184;SDS011;11258;52.516;13.318;2024-03-08T13:54:30;19.20;;;8.83;;
22184;SDS011;11258;52.516;13.318;2024-03-08T13:56:57;16.90;;;8.97;;
22184;SDS011;11258;52.516;13.318;2024-03-08T13:59:23;17.43;;;9.20;;
22184;SDS011;11258;52.516;13.318;2024-03-08T14:01:49;16.17;;;8.40;;
22184;SDS011;11258;52.516;13.318;2024-03-08T14:04:16;18.27;;;9.27;;
22184;SDS011;11258;52.516;13.318;2024-03-08T14:06:42;18.53;;;8.77;;
22184;SDS011;11258;52.516;13.318;2024-03-08T14:09:10;16.43;;;9.03;;
22184;SDS011;11258;52.516;13.318;2024-03-08T14:11:42;17.37;;;9.17;;
22184;SDS011;11258;52.516;13.318;2024-03-08T14:14:09;17.47;;;8.33;;
22184;SDS011;11258;52.516;13.318;2024-03-08T14:16:35;17.53;;;8.17;;
22184;SDS011;11258;52.516;13.318;2024-03-08T14:19:02;17.30;;;8.23;;